Vores vejrinfo findes også på:

UK Metoffice

European Weather Network

Weather Underground



Stationer ""tæt på"" METAR Rapporter

   
EKEB - Esbjerg, Denmark
Afstand fra denne vejrstation: NNV 29 km
Opdateret: 22-09-2019 00:20
Patches of, Tåge  
Patches of, Tåge  
   Vind fra: East 1.5 m/s
Vind fra: East 1.5 m/s
Temperatur: 9°C
Chill faktor: 8°C
Dugpunkt: 8°C
Luftfugtighed: 94%
Barometer: 1017 hPa
Sigtbarhed: 0 km
EKEB 212220Z AUTO 09003KT 0200 R08/0450U R26/0750U BCFG ///////// 09/08 Q1017
EKSP - Skrydstrup(Dan-A, Denmark
Afstand fra denne vejrstation: Ø 35 km
Opdateret: 22-09-2019 00:20
Tåge, Delvis overskyet  
Tåge, Delvis overskyet  
   Vind fra: vindstille
Vind fra: vindstille
Temperatur: 9°C
Dugpunkt: 8°C
Luftfugtighed: 94%
Barometer: 1017 hPa
Skyer: Delvis overskyet
Sigtbarhed: 0 km
Sky detaljer: Delvis overskyet
EKSP 212220Z 00000KT 0200 R10/1900U R28/M0300N FG NSC 09/08 Q1017
EKBI - Billund Airport, Denmark
Afstand fra denne vejrstation: NNØ 56 km
Opdateret: 22-09-2019 00:20
Patches of, Tåge, Mest overskyet  
Patches of, Tåge, Mest overskyet  
   Vind fra: vindstille
Vind fra: vindstille
Temperatur: 7°C
Dugpunkt: 7°C
Luftfugtighed: 100%
Barometer: 1018 hPa
Skyer: Mest overskyet
Sigtbarhed: 7 km
Sky detaljer: Mest overskyet 300 ft
EKBI 212220Z 00000KT 7000 R09/P1500N R27/0550N BCFG BKN003 07/07 Q1018
EKSB - Sonderborg Airpo, Denmark
Afstand fra denne vejrstation: ØSØ 76 km
Opdateret: 22-09-2019 00:20
Let regn, Tåge, Overskyet  
Let regn, Tåge, Overskyet  
   Vind fra: ØSØ 1 m/s
Vind fra: ØSØ 1 m/s
Temperatur: 12°C
Dugpunkt: 12°C
Luftfugtighed: 100%
Barometer: 1017 hPa
Skyer: Overskyet
Sigtbarhed: 0 km
Sky detaljer: Overskyet 200 ft
EKSB 212220Z AUTO 12002KT 0100NDV R14/0350N R32///// -RA FG VV002 12/12 Q1017
EKVD - Vamdrup (aut/man), Denmark
Afstand fra denne vejrstation: ØNØ 41 km
Opdateret: 22-09-2019 00:20
  
  
   Vind fra: vindstille
Vind fra: vindstille
Temperatur: 8°C
Dugpunkt: 8°C
Luftfugtighed: 100%
Barometer: 1017 hPa
EKVD 212220Z AUTO 00000KT //// ///////// 08/08 Q1017
EDXW - Westerland/Sylt, Germany
Afstand fra denne vejrstation: SSV 47 km
Opdateret: 21-09-2019 20:50
Data er IKKE opdaterede!
Klart  
Klart  
   Vind fra: East 2.6 m/s
Vind fra: East 2.6 m/s
Temperatur: 12°C
Dugpunkt: 12°C
Luftfugtighed: 100%
Barometer: 1018 hPa
Sigtbarhed: More than 10 km
Sky detaljer: Klart
EDXW 211850Z 08005KT CAVOK 12/12 Q1018

Original script by  Saratoga-weather.org Adapted for the template by  Weerstation Leuven

Der anvendes følgende:

Vejrstation
Davis VP2

Vejrprogram
Meteohub

Server
RaspberryPI 3 model B

Davis VP2

Meteohub

RaspberryPI 3 model B